Time;durP1;ratioP1;P1;durP2;ratioP2;P2;SDS_P1;SDS_P2;PMS_P1;PMS_P2;Temp;Humidity;BMP_temperature;BMP_pressure;BME280_temperature;BME280_humidity;BME280_pressure;Samples;Min_cycle;Max_cycle;Signal;HPM_P1;HPM_P2
2022/10/07 00:01:54;;;;;;;12.50;0.88;;;9.50;99.90;;;;;;5081391;28;20051;-65
2022/10/07 00:04:20;;;;;;;6.75;0.52;;;9.40;99.90;;;;;;5081417;28;20086;-64
2022/10/07 00:06:47;;;;;;;10.52;0.90;;;9.50;99.90;;;;;;5064386;28;20044;-65
2022/10/07 00:09:12;;;;;;;9.45;1.00;;;9.20;99.90;;;;;;5081094;28;20501;-65
2022/10/07 00:11:38;;;;;;;10.38;1.23;;;9.30;99.90;;;;;;5081046;28;20074;-66
2022/10/07 00:14:08;;;;;;;9.07;0.85;;;9.30;99.90;;;;;;5080588;28;20074;-65
2022/10/07 00:16:39;;;;;;;10.40;1.25;;;9.50;99.90;;;;;;5080546;28;20039;-65
2022/10/07 00:19:09;;;;;;;10.63;1.02;;;9.30;99.90;;;;;;5062174;28;20036;-65
2022/10/07 00:21:36;;;;;;;8.73;0.95;;;9.40;99.90;;;;;;5082471;28;20040;-65
2022/10/07 00:24:03;;;;;;;13.05;1.67;;;9.40;99.90;;;;;;5079510;28;20407;-66
2022/10/07 00:26:34;;;;;;;14.18;1.20;;;9.30;99.90;;;;;;5080224;28;20043;-65
2022/10/07 00:29:01;;;;;;;9.05;0.93;;;9.20;99.90;;;;;;5081122;28;20055;-66
2022/10/07 00:31:29;;;;;;;12.20;1.10;;;9.40;99.90;;;;;;5080957;28;20444;-66
2022/10/07 00:33:56;;;;;;;11.98;1.40;;;9.50;99.90;;;;;;5063748;28;20046;-66
2022/10/07 00:36:24;;;;;;;13.52;1.00;;;9.20;99.90;;;;;;5062091;28;20044;-65
2022/10/07 00:38:54;;;;;;;11.02;1.00;;;9.40;99.90;;;;;;5080449;28;20043;-65
2022/10/07 00:41:24;;;;;;;13.00;1.20;;;9.40;99.90;;;;;;5080498;28;20374;-64
2022/10/07 00:43:50;;;;;;;15.35;1.58;;;9.40;99.90;;;;;;5064181;28;21643;-65
2022/10/07 00:46:34;;;;;;;15.00;0.98;;;9.20;99.90;;;;;;5062798;28;20036;-65
2022/10/07 00:49:08;;;;;;;;;;;9.40;99.90;;;;;;5080930;28;20429;-67
2022/10/07 00:51:35;;;;;;;12.40;1.10;;;9.30;99.90;;;;;;5079142;28;20370;-65
2022/10/07 00:54:06;;;;;;;11.73;1.52;;;9.30;99.90;;;;;;5079020;28;20036;-65
2022/10/07 00:56:33;;;;;;;11.95;1.80;;;9.20;99.90;;;;;;5080505;28;20504;-66
2022/10/07 00:59:00;;;;;;;11.20;0.98;;;9.30;99.90;;;;;;5080883;28;21301;-65
2022/10/07 01:01:26;;;;;;;11.30;1.23;;;9.50;99.90;;;;;;5063768;28;20078;-65
2022/10/07 01:03:53;;;;;;;11.23;1.65;;;9.20;99.90;;;;;;5063545;28;20055;-65
2022/10/07 01:06:18;;;;;;;11.23;1.20;;;9.40;99.90;;;;;;5047262;28;20036;-65
2022/10/07 01:08:46;;;;;;;11.63;1.40;;;9.20;99.90;;;;;;5080532;28;20085;-65
2022/10/07 01:11:25;;;;;;;11.45;1.40;;;9.20;99.90;;;;;;5063916;28;20866;-65
2022/10/07 01:14:19;;;;;;;12.50;1.63;;;9.20;99.90;;;;;;5079638;28;20099;-65
2022/10/07 01:16:54;;;;;;;13.13;1.27;;;9.20;99.90;;;;;;5079623;28;20134;-66
2022/10/07 01:19:40;;;;;;;9.95;1.35;;;9.20;99.90;;;;;;5079135;28;20166;-66
2022/10/07 01:22:24;;;;;;;12.98;1.83;;;9.10;99.90;;;;;;5080009;28;20048;-65
2022/10/07 01:25:02;;;;;;;10.90;1.60;;;9.10;99.90;;;;;;5078744;28;20051;-64
2022/10/07 01:27:28;;;;;;;10.55;1.88;;;9.20;99.90;;;;;;5079814;28;20152;-64
2022/10/07 01:30:05;;;;;;;13.68;2.13;;;9.00;99.90;;;;;;5079698;28;20497;-65
2022/10/07 01:32:39;;;;;;;13.00;1.65;;;9.10;99.90;;;;;;5079430;28;20083;-65
2022/10/07 01:35:09;;;;;;;13.43;1.65;;;9.00;99.90;;;;;;5079550;28;20044;-65
2022/10/07 01:37:40;;;;;;;9.77;1.50;;;9.20;99.90;;;;;;5062858;28;20050;-65
2022/10/07 01:40:11;;;;;;;10.10;1.63;;;8.90;99.90;;;;;;5079718;28;20531;-64
2022/10/07 01:42:37;;;;;;;11.45;1.40;;;9.20;99.90;;;;;;5050916;28;20055;-65
2022/10/07 01:45:04;;;;;;;9.50;2.00;;;9.10;99.90;;;;;;5079509;28;20676;-65
2022/10/07 01:47:30;;;;;;;9.38;1.48;;;9.00;99.90;;;;;;5079744;28;20367;-65
2022/10/07 01:49:56;;;;;;;10.63;1.67;;;9.10;99.90;;;;;;5062767;28;20137;-65
2022/10/07 01:52:41;;;;;;;16.23;2.20;;;8.80;99.90;;;;;;5078924;28;20051;-66
2022/10/07 01:55:07;;;;;;;14.82;2.10;;;8.90;99.90;;;;;;5078919;28;20129;-66
2022/10/07 01:57:46;;;;;;;11.80;2.17;;;8.90;99.90;;;;;;5062414;28;20140;-65
2022/10/07 02:00:13;;;;;;;12.30;1.83;;;9.10;99.90;;;;;;5079644;28;20052;-65
2022/10/07 02:03:05;;;;;;;12.77;2.00;;;9.00;99.90;;;;;;5079614;28;20055;-66
2022/10/07 02:05:54;;;;;;;11.15;2.30;;;8.90;99.90;;;;;;5079583;28;20416;-66
2022/10/07 02:08:29;;;;;;;12.55;2.30;;;9.10;99.90;;;;;;5079129;28;20044;-65
2022/10/07 02:11:19;;;;;;;12.55;1.95;;;8.80;99.90;;;;;;5078895;28;20064;-65
2022/10/07 02:14:10;;;;;;;8.27;1.95;;;9.00;99.90;;;;;;5079696;28;20040;-64
2022/10/07 02:17:06;;;;;;;17.70;2.20;;;8.80;99.90;;;;;;5079266;28;20850;-65
2022/10/07 02:19:35;;;;;;;10.65;1.85;;;9.00;99.90;;;;;;5079209;28;20050;-65
2022/10/07 02:22:02;;;;;;;10.43;2.05;;;8.80;99.90;;;;;;5063034;28;20494;-65
2022/10/07 02:24:32;;;;;;;12.93;2.30;;;8.80;99.90;;;;;;5079797;28;20051;-66
2022/10/07 02:27:02;;;;;;;11.57;1.92;;;9.00;99.90;;;;;;5050786;28;20048;-65
2022/10/07 02:29:31;;;;;;;12.07;2.00;;;8.90;99.90;;;;;;5079646;28;20485;-65
2022/10/07 02:31:59;;;;;;;11.55;2.60;;;9.10;99.90;;;;;;5082156;28;20043;-65
2022/10/07 02:34:27;;;;;;;14.38;2.47;;;8.70;99.90;;;;;;5082693;28;20123;-65
2022/10/07 02:36:57;;;;;;;11.50;2.22;;;9.00;99.90;;;;;;5067165;28;20040;-65
2022/10/07 02:39:23;;;;;;;14.35;2.88;;;8.80;99.90;;;;;;5082599;28;20408;-66
2022/10/07 02:42:05;;;;;;;14.85;2.17;;;8.90;99.90;;;;;;5082647;28;20052;-65
2022/10/07 02:45:13;;;;;;;17.50;3.03;;;8.80;99.90;;;;;;5082829;28;20077;-65
2022/10/07 02:47:48;;;;;;;13.65;2.75;;;8.70;99.90;;;;;;5019371;28;20184;-66
2022/10/07 02:50:20;;;;;;;17.92;2.75;;;8.90;99.90;;;;;;5082004;28;20040;-65
2022/10/07 02:52:48;;;;;;;13.13;2.70;;;9.00;99.90;;;;;;5082918;28;20079;-67
2022/10/07 02:55:21;;;;;;;11.65;2.70;;;8.60;99.90;;;;;;5081788;28;20282;-66
2022/10/07 02:57:49;;;;;;;;;;;8.70;99.90;;;;;;5082281;28;20150;-65
2022/10/07 03:00:15;;;;;;;9.98;2.20;;;8.60;99.90;;;;;;5082268;28;19999;-65
2022/10/07 03:02:47;;;;;;;13.18;2.92;;;8.60;99.90;;;;;;5065011;28;20036;-65
2022/10/07 03:05:18;;;;;;;13.38;2.83;;;8.70;99.90;;;;;;5082108;28;20040;-65
2022/10/07 03:07:45;;;;;;;11.50;2.22;;;9.00;99.90;;;;;;5082368;28;20083;-65
2022/10/07 03:10:12;;;;;;;19.98;3.08;;;8.90;99.90;;;;;;5065635;28;20044;-65
2022/10/07 03:12:38;;;;;;;9.60;2.40;;;8.90;99.90;;;;;;5081981;28;20307;-65
2022/10/07 03:15:04;;;;;;;13.18;3.03;;;9.00;99.90;;;;;;5083643;28;20077;-66
2022/10/07 03:17:30;;;;;;;14.27;2.83;;;8.80;99.90;;;;;;5082264;28;20129;-66
2022/10/07 03:19:56;;;;;;;12.73;2.78;;;9.10;99.90;;;;;;5099261;28;20073;-66
2022/10/07 03:22:22;;;;;;;13.98;2.92;;;8.90;99.90;;;;;;5082566;28;20094;-65
2022/10/07 03:24:47;;;;;;;17.65;2.47;;;8.90;99.90;;;;;;5065397;28;20048;-65
2022/10/07 03:27:13;;;;;;;13.98;2.50;;;9.10;99.90;;;;;;5047979;28;20040;-65
2022/10/07 03:29:39;;;;;;;14.88;2.58;;;9.10;99.90;;;;;;5081391;28;20075;-66
2022/10/07 03:32:04;;;;;;;14.55;2.75;;;9.10;99.90;;;;;;5048791;28;20039;-65
2022/10/07 03:34:31;;;;;;;15.60;3.03;;;9.10;99.90;;;;;;5082212;28;20066;-65
2022/10/07 03:36:57;;;;;;;16.90;3.03;;;8.80;99.90;;;;;;5048812;28;20650;-65
2022/10/07 03:39:23;;;;;;;13.18;3.10;;;9.10;99.90;;;;;;5082027;28;20343;-63
2022/10/07 03:41:50;;;;;;;20.88;2.97;;;9.10;99.90;;;;;;5047628;28;20055;-65
2022/10/07 03:44:18;;;;;;;25.27;4.07;;;8.90;99.90;;;;;;5081666;28;20043;-67
2022/10/07 03:46:46;;;;;;;15.68;3.13;;;8.80;99.90;;;;;;5081569;28;20080;-65
2022/10/07 03:49:12;;;;;;;13.13;2.60;;;8.60;99.90;;;;;;5081481;28;20122;-65
2022/10/07 03:51:38;;;;;;;15.80;3.13;;;9.00;99.90;;;;;;5098433;28;20146;-65
2022/10/07 03:54:03;;;;;;;14.15;2.85;;;9.00;99.90;;;;;;5081801;28;20040;-65
2022/10/07 03:56:29;;;;;;;18.40;3.40;;;8.80;99.90;;;;;;5065079;28;20430;-67
2022/10/07 03:58:55;;;;;;;14.95;2.90;;;8.70;99.90;;;;;;5048791;28;20481;-66
2022/10/07 04:01:21;;;;;;;18.02;3.25;;;8.70;99.90;;;;;;5064944;28;20334;-65
2022/10/07 04:03:46;;;;;;;19.63;3.25;;;8.80;99.90;;;;;;5064660;28;20167;-65
2022/10/07 04:06:12;;;;;;;19.40;2.80;;;8.60;99.90;;;;;;5064618;28;20040;-64
2022/10/07 04:08:39;;;;;;;19.90;3.40;;;8.90;99.90;;;;;;5064322;28;20044;-66
2022/10/07 04:11:05;;;;;;;14.38;2.88;;;9.10;99.90;;;;;;5063338;28;20067;-66
2022/10/07 04:13:31;;;;;;;19.52;3.53;;;9.00;99.90;;;;;;5062613;28;20469;-66
2022/10/07 04:15:57;;;;;;;19.15;3.10;;;8.80;99.90;;;;;;5080697;28;20040;-65
2022/10/07 04:18:23;;;;;;;18.50;3.53;;;8.90;99.90;;;;;;5047763;28;20074;-66
2022/10/07 04:20:49;;;;;;;17.33;3.45;;;9.00;99.90;;;;;;5080655;28;20046;-64
2022/10/07 04:23:15;;;;;;;17.48;3.75;;;9.10;99.90;;;;;;5061035;28;20036;-65
2022/10/07 04:25:43;;;;;;;16.13;3.40;;;8.80;99.90;;;;;;5076861;28;20478;-65
2022/10/07 04:28:18;;;;;;;17.83;3.08;;;9.00;99.90;;;;;;5060712;28;20071;-65
2022/10/07 04:30:47;;;;;;;17.13;3.00;;;8.80;99.90;;;;;;5060369;28;20089;-64
2022/10/07 04:33:13;;;;;;;18.70;3.72;;;9.10;99.90;;;;;;5077262;28;20070;-65
2022/10/07 04:35:40;;;;;;;18.33;3.15;;;8.80;99.90;;;;;;5061043;28;20035;-63
2022/10/07 04:38:10;;;;;;;18.05;3.72;;;9.10;99.90;;;;;;5094185;28;20028;-64
2022/10/07 04:40:41;;;;;;;17.05;2.65;;;8.90;99.90;;;;;;5058307;28;20383;-65
2022/10/07 04:43:22;;;;;;;12.80;2.90;;;8.70;99.90;;;;;;5060138;28;20752;-64
2022/10/07 04:45:53;;;;;;;18.95;3.65;;;9.00;99.90;;;;;;5077152;28;20511;-63
2022/10/07 04:48:21;;;;;;;20.85;4.05;;;8.80;99.90;;;;;;5077384;28;20052;-65
2022/10/07 04:50:47;;;;;;;16.00;3.60;;;8.60;99.90;;;;;;5077316;28;20418;-64
2022/10/07 04:53:15;;;;;;;16.05;3.30;;;8.90;99.90;;;;;;5075853;28;20035;-64
2022/10/07 04:55:43;;;;;;;19.50;3.88;;;8.60;99.90;;;;;;5076654;28;20036;-64
2022/10/07 04:58:09;;;;;;;19.75;3.88;;;8.60;99.90;;;;;;5092097;28;20048;-64
2022/10/07 05:00:49;;;;;;;17.15;3.65;;;8.50;99.90;;;;;;5060627;28;20480;-65
2022/10/07 05:03:16;;;;;;;18.45;3.72;;;8.70;99.90;;;;;;5077759;28;20043;-64
2022/10/07 05:05:44;;;;;;;17.83;3.95;;;8.80;99.90;;;;;;5076804;28;20047;-64
2022/10/07 05:08:12;;;;;;;15.50;4.07;;;8.90;99.90;;;;;;5059348;28;20097;-64
2022/10/07 05:10:39;;;;;;;20.52;3.90;;;8.50;99.90;;;;;;5074981;28;20565;-65
2022/10/07 05:13:06;;;;;;;19.13;4.25;;;8.70;99.90;;;;;;5077674;28;20433;-65
2022/10/07 05:15:32;;;;;;;21.73;4.43;;;8.90;99.90;;;;;;5077787;28;20094;-64
2022/10/07 05:17:57;;;;;;;20.10;4.30;;;8.80;99.90;;;;;;5058971;28;20557;-65
2022/10/07 05:20:23;;;;;;;19.75;4.28;;;8.80;99.90;;;;;;5041231;28;20493;-64
2022/10/07 05:22:49;;;;;;;17.80;4.43;;;8.80;99.90;;;;;;5059220;28;20361;-64
2022/10/07 05:25:14;;;;;;;21.10;4.80;;;8.70;99.90;;;;;;5076001;28;20413;-65
2022/10/07 05:27:40;;;;;;;23.77;4.75;;;8.90;99.90;;;;;;5058949;28;20432;-65
2022/10/07 05:30:07;;;;;;;20.20;4.35;;;8.70;99.90;;;;;;5076717;28;20036;-65
2022/10/07 05:32:33;;;;;;;20.35;4.55;;;8.80;99.90;;;;;;5076084;28;20074;-65
2022/10/07 05:35:00;;;;;;;19.45;4.38;;;8.70;99.90;;;;;;5059684;28;20063;-64
2022/10/07 05:37:26;;;;;;;17.50;4.45;;;8.50;99.90;;;;;;5059919;28;20230;-64
2022/10/07 05:39:52;;;;;;;19.10;4.35;;;8.50;99.90;;;;;;5059737;28;20406;-65
2022/10/07 05:42:18;;;;;;;21.75;4.47;;;8.50;99.90;;;;;;5043299;28;20052;-64
2022/10/07 05:44:45;;;;;;;15.77;4.22;;;8.80;99.90;;;;;;5076318;28;20036;-66
2022/10/07 05:47:11;;;;;;;17.52;4.03;;;8.70;99.90;;;;;;5059377;28;20048;-64
2022/10/07 05:49:36;;;;;;;20.70;4.70;;;8.70;99.90;;;;;;5076073;28;20128;-65
2022/10/07 05:52:03;;;;;;;21.45;5.13;;;8.50;99.90;;;;;;5075931;28;20052;-65
2022/10/07 05:54:28;;;;;;;17.85;4.75;;;8.40;99.90;;;;;;5058998;28;20071;-65
2022/10/07 05:56:54;;;;;;;24.85;5.40;;;8.60;99.90;;;;;;5076292;28;20403;-64
2022/10/07 05:59:20;;;;;;;18.13;4.55;;;8.80;99.90;;;;;;5058804;28;20139;-64
2022/10/07 06:01:46;;;;;;;19.67;5.63;;;8.60;99.90;;;;;;5059026;28;20115;-65
2022/10/07 06:04:12;;;;;;;23.45;5.10;;;8.90;99.90;;;;;;5058803;28;20048;-64
2022/10/07 06:06:38;;;;;;;18.35;5.05;;;8.50;99.90;;;;;;5081400;28;20048;-65
2022/10/07 06:14:33;;;;;;;25.58;5.20;;;8.60;99.90;;;;;;5079781;28;20543;-64
2022/10/07 06:16:59;;;;;;;24.92;5.30;;;9.00;99.90;;;;;;5079286;28;20047;-64
2022/10/07 06:19:24;;;;;;;18.10;4.90;;;9.00;99.90;;;;;;5061883;28;20036;-63
2022/10/07 06:21:50;;;;;;;21.35;5.90;;;9.00;99.90;;;;;;5079730;28;20040;-65
2022/10/07 06:24:16;;;;;;;20.80;5.82;;;8.80;99.90;;;;;;5062638;28;20047;-65
2022/10/07 06:26:42;;;;;;;16.40;5.43;;;9.10;99.90;;;;;;5063385;28;20198;-65
2022/10/07 06:29:09;;;;;;;21.65;5.85;;;8.80;99.90;;;;;;5078966;28;20090;-65
2022/10/07 06:31:35;;;;;;;22.40;5.45;;;8.90;99.90;;;;;;5062441;28;20044;-64
2022/10/07 06:34:01;;;;;;;19.48;5.65;;;9.30;99.90;;;;;;5079053;28;20282;-65
2022/10/07 06:36:26;;;;;;;21.23;5.15;;;9.20;99.90;;;;;;5079153;28;20038;-64
2022/10/07 06:38:54;;;;;;;21.65;4.68;;;9.40;99.90;;;;;;5079899;28;20040;-64
2022/10/07 06:41:20;;;;;;;15.50;4.45;;;9.30;99.90;;;;;;5078235;28;20051;-63
2022/10/07 06:43:46;;;;;;;22.45;5.50;;;9.30;99.90;;;;;;5063086;28;20119;-64
2022/10/07 06:46:17;;;;;;;24.10;5.75;;;9.50;99.90;;;;;;5080296;28;20338;-65
2022/10/07 06:48:44;;;;;;;20.90;4.82;;;9.50;99.90;;;;;;5081342;28;20505;-64
2022/10/07 06:51:18;;;;;;;24.23;5.18;;;9.70;99.90;;;;;;5079337;28;20349;-64
2022/10/07 06:53:45;;;;;;;20.17;4.32;;;9.40;99.90;;;;;;5061831;28;20105;-64
2022/10/07 06:56:13;;;;;;;21.30;4.75;;;9.50;99.90;;;;;;5075409;28;20032;-64
2022/10/07 06:58:39;;;;;;;17.75;4.70;;;9.50;99.90;;;;;;5079078;28;20059;-64
2022/10/07 07:01:04;;;;;;;16.02;3.97;;;9.90;99.90;;;;;;5060467;28;20044;-64
2022/10/07 07:03:30;;;;;;;17.50;5.15;;;9.80;99.90;;;;;;5063416;28;20052;-64
2022/10/07 07:05:56;;;;;;;21.52;4.38;;;10.10;99.90;;;;;;5064189;28;20230;-63
2022/10/07 07:08:26;;;;;;;20.00;4.53;;;10.00;99.90;;;;;;5064019;28;20044;-64
2022/10/07 07:10:52;;;;;;;15.90;4.97;;;9.90;99.90;;;;;;5063352;28;20558;-65
2022/10/07 07:13:18;;;;;;;15.38;4.55;;;10.20;99.90;;;;;;5043697;28;20044;-64
2022/10/07 07:15:56;;;;;;;22.10;4.70;;;10.00;99.90;;;;;;5062807;28;20044;-64
2022/10/07 07:18:23;;;;;;;18.90;4.60;;;10.30;99.90;;;;;;5080323;28;20036;-65
2022/10/07 07:20:48;;;;;;;21.48;5.25;;;10.40;99.90;;;;;;5064075;28;20430;-64
2022/10/07 07:23:14;;;;;;;23.80;4.65;;;10.40;99.90;;;;;;5063659;28;20217;-65
2022/10/07 07:25:44;;;;;;;22.60;5.00;;;10.40;99.90;;;;;;5079153;28;20546;-65
2022/10/07 07:28:11;;;;;;;19.75;4.15;;;10.40;99.90;;;;;;5079149;28;20047;-63
2022/10/07 07:30:38;;;;;;;23.55;4.70;;;10.60;99.90;;;;;;5079348;28;20048;-63
2022/10/07 07:33:04;;;;;;;21.10;5.50;;;10.50;99.90;;;;;;5079248;28;20047;-63
2022/10/07 07:35:31;;;;;;;18.52;4.22;;;10.50;99.90;;;;;;5078841;28;20394;-64
2022/10/07 07:37:58;;;;;;;20.15;4.68;;;10.70;99.90;;;;;;5079260;28;20051;-65
2022/10/07 07:40:25;;;;;;;22.17;4.20;;;11.00;99.90;;;;;;5061619;28;20539;-63
2022/10/07 07:42:53;;;;;;;24.17;5.57;;;10.90;99.90;;;;;;5077673;28;20451;-64
2022/10/07 07:45:20;;;;;;;20.48;4.53;;;10.90;99.90;;;;;;5061671;28;20036;-64
2022/10/07 07:47:48;;;;;;;21.38;4.50;;;11.20;99.90;;;;;;5078135;28;20048;-65
2022/10/07 07:50:15;;;;;;;16.27;3.92;;;11.60;99.90;;;;;;5077957;28;20075;-65
2022/10/07 07:52:41;;;;;;;16.08;3.67;;;12.00;99.90;;;;;;5078105;28;20545;-64
2022/10/07 07:55:07;;;;;;;16.58;3.45;;;12.70;99.90;;;;;;5077768;28;20071;-65
2022/10/07 07:57:32;;;;;;;18.35;3.45;;;12.90;99.90;;;;;;5061814;28;20058;-64
2022/10/07 07:59:58;;;;;;;15.18;3.33;;;13.30;99.90;;;;;;5062481;28;20035;-63
2022/10/07 08:02:24;;;;;;;15.50;3.13;;;13.60;99.90;;;;;;5079527;28;20048;-66
2022/10/07 08:04:49;;;;;;;16.13;3.38;;;13.90;99.90;;;;;;5078826;28;20039;-65
2022/10/07 08:07:15;;;;;;;14.25;3.25;;;14.00;99.90;;;;;;5061508;28;20032;-64
2022/10/07 08:09:41;;;;;;;17.80;3.15;;;14.10;99.90;;;;;;5078041;28;20043;-64
2022/10/07 08:12:07;;;;;;;14.13;2.88;;;14.10;99.90;;;;;;5079644;28;20548;-64
2022/10/07 08:14:34;;;;;;;14.30;3.42;;;14.60;99.90;;;;;;5080172;28;20043;-65
2022/10/07 08:17:00;;;;;;;15.05;2.83;;;14.60;99.90;;;;;;5078388;28;20062;-65
2022/10/07 08:19:28;;;;;;;15.35;2.90;;;14.70;99.90;;;;;;5061149;28;20494;-66
2022/10/07 08:21:54;;;;;;;17.55;3.08;;;15.00;99.90;;;;;;5079738;28;20531;-66
2022/10/07 08:24:21;;;;;;;15.90;2.83;;;15.30;99.90;;;;;;5078363;28;20122;-65
2022/10/07 08:26:47;;;;;;;18.17;2.83;;;15.50;99.90;;;;;;5061313;28;20040;-65
2022/10/07 08:29:14;;;;;;;12.48;2.70;;;15.70;99.90;;;;;;5077630;28;20044;-65
2022/10/07 08:31:41;;;;;;;20.83;2.90;;;15.70;99.90;;;;;;5044848;28;20044;-65
2022/10/07 08:34:08;;;;;;;13.23;2.80;;;16.10;99.90;;;;;;5060403;28;20176;-64
2022/10/07 08:36:34;;;;;;;15.23;2.80;;;16.20;99.90;;;;;;5075743;28;20039;-65
2022/10/07 08:39:01;;;;;;;16.95;2.72;;;16.50;99.90;;;;;;5077585;28;20566;-66
2022/10/07 08:41:27;;;;;;;13.80;2.13;;;16.20;99.90;;;;;;5060281;28;20064;-65
2022/10/07 08:43:53;;;;;;;11.10;2.17;;;16.40;99.90;;;;;;5077235;28;20077;-65
2022/10/07 08:46:30;;;;;;;16.02;2.38;;;16.50;99.90;;;;;;5042161;28;20044;-65
2022/10/07 08:49:05;;;;;;;18.33;2.80;;;16.30;99.90;;;;;;5039051;28;20048;-64
2022/10/07 08:51:47;;;;;;;16.77;2.58;;;16.50;99.90;;;;;;5056549;28;20080;-64
2022/10/07 08:54:15;;;;;;;9.98;2.03;;;16.90;99.90;;;;;;5058496;28;20044;-65
2022/10/07 08:56:42;;;;;;;13.68;2.10;;;16.90;99.90;;;;;;5053587;28;20044;-64
2022/10/07 08:59:23;;;;;;;14.75;2.58;;;17.00;99.90;;;;;;5056119;28;20044;-64
2022/10/07 09:02:07;;;;;;;9.85;2.05;;;17.40;99.90;;;;;;5057258;28;20281;-64
2022/10/07 09:04:56;;;;;;;15.82;2.38;;;17.30;99.90;;;;;;5055721;28;20076;-64
2022/10/07 09:07:46;;;;;;;14.40;2.15;;;16.90;99.90;;;;;;5054794;28;20570;-64
2022/10/07 09:10:40;;;;;;;11.80;1.52;;;16.60;99.90;;;;;;5039044;28;20121;-65
2022/10/07 09:13:17;;;;;;;12.95;2.45;;;17.10;99.90;;;;;;5054004;28;20281;-66
2022/10/07 09:15:49;;;;;;;11.02;1.83;;;17.20;99.90;;;;;;5054252;28;20045;-67
2022/10/07 09:18:39;;;;;;;13.90;1.83;;;17.30;99.90;;;;;;5053067;28;20040;-64
2022/10/07 09:21:11;;;;;;;11.82;1.83;;;17.80;99.90;;;;;;5036363;28;20044;-65
2022/10/07 09:23:37;;;;;;;12.65;1.85;;;17.60;99.90;;;;;;5054786;28;20365;-64
2022/10/07 09:26:17;;;;;;;15.95;2.10;;;17.80;99.90;;;;;;5032163;28;20144;-65
2022/10/07 09:28:43;;;;;;;13.88;2.38;;;18.00;99.90;;;;;;5039020;28;20044;-65
2022/10/07 09:31:13;;;;;;;11.02;1.73;;;18.10;99.90;;;;;;5039378;28;20101;-65
2022/10/07 09:33:48;;;;;;;12.50;2.03;;;18.40;99.90;;;;;;5038976;28;20419;-66
2022/10/07 09:36:18;;;;;;;11.05;1.85;;;18.60;99.90;;;;;;5030856;28;20047;-65
2022/10/07 09:38:51;;;;;;;13.35;1.92;;;18.80;99.90;;;;;;5057716;28;20112;-64
2022/10/07 09:41:31;;;;;;;14.52;1.70;;;18.70;99.90;;;;;;5024156;28;20528;-65
2022/10/07 09:44:18;;;;;;;10.90;1.70;;;19.00;99.90;;;;;;5019956;28;20346;-65
2022/10/07 09:46:56;;;;;;;8.77;1.92;;;19.10;99.90;;;;;;5034241;28;20043;-65
2022/10/07 09:49:27;;;;;;;10.20;1.58;;;18.60;99.90;;;;;;5034869;28;20036;-66
2022/10/07 09:52:02;;;;;;;11.90;2.00;;;18.60;99.90;;;;;;5035241;28;20557;-67
2022/10/07 09:54:30;;;;;;;13.20;1.77;;;18.60;99.90;;;;;;5013458;28;20040;-65
2022/10/07 09:56:58;;;;;;;11.43;1.90;;;18.80;99.90;;;;;;5035491;28;20149;-66
2022/10/07 09:59:25;;;;;;;13.30;1.67;;;18.90;99.90;;;;;;5034624;28;20056;-65
2022/10/07 10:01:58;;;;;;;17.02;2.10;;;19.00;99.90;;;;;;5038182;28;20491;-65
2022/10/07 10:04:32;;;;;;;16.00;2.08;;;19.00;99.90;;;;;;5037356;28;20076;-66
2022/10/07 10:07:20;;;;;;;11.25;2.10;;;19.10;99.90;;;;;;5035000;28;20053;-65
2022/10/07 10:09:55;;;;;;;13.48;1.80;;;19.40;99.90;;;;;;5021100;28;20060;-65
2022/10/07 10:12:23;;;;;;;13.95;2.13;;;19.50;99.90;;;;;;5024532;28;20052;-66
2022/10/07 10:14:54;;;;;;;12.27;1.58;;;19.40;99.90;;;;;;5037215;28;20041;-66
2022/10/07 10:17:28;;;;;;;11.57;1.80;;;19.50;99.90;;;;;;5039066;28;20041;-65
2022/10/07 10:20:00;;;;;;;12.55;1.88;;;19.10;99.90;;;;;;5039631;28;20471;-65
2022/10/07 10:22:28;;;;;;;15.15;1.85;;;19.40;99.90;;;;;;5037312;28;20457;-65
2022/10/07 10:28:10;;;;;;;12.70;1.88;;;19.30;99.90;;;;;;5021279;28;20067;-65
2022/10/07 10:30:47;;;;;;;10.60;1.70;;;19.50;99.90;;;;;;5033882;28;20076;-65
2022/10/07 10:33:17;;;;;;;11.73;1.50;;;20.00;99.90;;;;;;5036651;28;20053;-66
2022/10/07 10:35:54;;;;;;;12.07;1.98;;;20.30;99.90;;;;;;5019541;28;20859;-65
2022/10/07 10:39:05;;;;;;;11.10;1.30;;;20.40;99.90;;;;;;5018773;28;20557;-65
2022/10/07 10:41:54;;;;;;;11.25;1.85;;;20.10;99.90;;;;;;4985910;28;20134;-65
2022/10/07 10:44:38;;;;;;;12.88;1.45;;;20.20;99.90;;;;;;5018722;28;20353;-67
2022/10/07 10:47:32;;;;;;;10.15;1.50;;;20.30;99.90;;;;;;5033884;28;20757;-64
2022/10/07 10:50:28;;;;;;;14.30;1.90;;;20.20;99.90;;;;;;5030383;28;20056;-64
2022/10/07 10:53:06;;;;;;;9.82;1.60;;;20.50;99.90;;;;;;5031452;28;20048;-65
2022/10/07 10:55:50;;;;;;;9.02;1.35;;;20.10;99.90;;;;;;5023319;28;20672;-65
2022/10/07 10:58:28;;;;;;;11.35;1.52;;;20.20;99.90;;;;;;5058490;28;20041;-65
2022/10/07 11:01:03;;;;;;;11.15;1.35;;;20.00;99.90;;;;;;5023505;28;20897;-66
2022/10/07 11:03:42;;;;;;;14.43;1.77;;;19.80;99.90;;;;;;5024794;28;20045;-66
2022/10/07 11:06:11;;;;;;;12.90;1.80;;;20.20;99.90;;;;;;5040165;28;20509;-65
2022/10/07 11:08:37;;;;;;;11.75;1.70;;;20.50;99.90;;;;;;5040238;28;20090;-66
2022/10/07 11:11:07;;;;;;;9.55;1.20;;;20.60;99.90;;;;;;5035842;28;20048;-66
2022/10/07 11:13:37;;;;;;;12.15;1.48;;;20.80;99.90;;;;;;5024861;28;20084;-65
2022/10/07 11:16:35;;;;;;;11.77;1.50;;;21.40;99.90;;;;;;5030205;28;20072;-64
2022/10/07 11:19:06;;;;;;;12.90;1.75;;;21.10;99.90;;;;;;5006672;28;20145;-66
2022/10/07 11:21:45;;;;;;;7.53;1.17;;;21.20;99.90;;;;;;5041488;28;20510;-66
2022/10/07 11:24:28;;;;;;;9.95;1.17;;;21.20;99.90;;;;;;5012451;28;20518;-66
2022/10/07 11:27:15;;;;;;;14.88;1.70;;;20.30;99.90;;;;;;5040554;28;20091;-65
2022/10/07 11:30:06;;;;;;;9.32;1.00;;;19.40;99.90;;;;;;5039885;28;20045;-66
2022/10/07 11:32:59;;;;;;;9.82;1.20;;;19.40;99.90;;;;;;5039514;28;20115;-66
2022/10/07 11:35:33;;;;;;;12.57;1.90;;;19.70;99.90;;;;;;5028275;28;20052;-66
2022/10/07 11:38:15;;;;;;;10.57;1.60;;;19.60;99.90;;;;;;5041387;28;20068;-66
2022/10/07 11:41:07;;;;;;;10.95;1.50;;;19.10;99.90;;;;;;5042640;28;20396;-66
2022/10/07 11:43:55;;;;;;;12.48;1.90;;;19.50;99.90;;;;;;5041152;28;20285;-66
2022/10/07 11:46:54;;;;;;;14.65;2.15;;;19.30;99.90;;;;;;5009332;28;20139;-66
2022/10/07 11:49:28;;;;;;;10.63;1.85;;;19.30;99.90;;;;;;4989953;28;20227;-65
2022/10/07 11:52:15;;;;;;;13.43;1.60;;;19.40;99.90;;;;;;5013025;28;20570;-65
2022/10/07 11:55:06;;;;;;;12.40;1.80;;;19.60;99.90;;;;;;5040283;28;20056;-64
2022/10/07 11:57:37;;;;;;;10.07;1.33;;;19.90;99.90;;;;;;5016633;28;20477;-66
2022/10/07 12:00:07;;;;;;;9.15;1.10;;;19.90;99.90;;;;;;5039896;28;20037;-65
2022/10/07 12:02:53;;;;;;;9.15;1.40;;;20.10;99.90;;;;;;5039898;28;20045;-65
2022/10/07 12:05:35;;;;;;;9.30;1.13;;;20.20;99.90;;;;;;5039195;28;20045;-65
2022/10/07 12:08:30;;;;;;;12.15;1.30;;;20.00;99.90;;;;;;5057066;28;20316;-66
2022/10/07 12:11:19;;;;;;;13.13;1.23;;;19.60;99.90;;;;;;5039845;28;20048;-66
2022/10/07 12:14:06;;;;;;;10.27;1.52;;;19.20;99.90;;;;;;5039675;28;20043;-66
2022/10/07 12:16:31;;;;;;;9.60;1.00;;;19.00;99.90;;;;;;5038275;28;20095;-65
2022/10/07 12:19:06;;;;;;;8.50;0.90;;;18.80;99.90;;;;;;5019556;28;20471;-66
2022/10/07 12:22:03;;;;;;;11.00;1.00;;;18.40;99.90;;;;;;5039053;28;20056;-66
2022/10/07 12:24:35;;;;;;;7.97;0.95;;;18.10;99.90;;;;;;5039567;28;20372;-66
2022/10/07 12:27:12;;;;;;;11.07;1.25;;;18.50;99.90;;;;;;5024242;28;20045;-66
2022/10/07 12:30:01;;;;;;;10.02;1.00;;;19.00;99.90;;;;;;5039484;28;20132;-66
2022/10/07 12:32:45;;;;;;;9.73;1.10;;;19.20;99.90;;;;;;5039013;28;20049;-66
2022/10/07 12:35:38;;;;;;;9.25;0.98;;;19.30;99.90;;;;;;5029513;28;20041;-66
2022/10/07 12:38:15;;;;;;;6.65;0.75;;;18.90;99.90;;;;;;5008636;28;20091;-65
2022/10/07 12:40:46;;;;;;;9.52;0.95;;;18.70;99.90;;;;;;5022037;28;20466;-66
2022/10/07 12:43:33;;;;;;;9.88;0.90;;;18.80;99.90;;;;;;5023443;28;20633;-64
2022/10/07 12:46:00;;;;;;;9.15;0.85;;;18.60;99.90;;;;;;5014528;28;20105;-65
2022/10/07 12:48:31;;;;;;;11.80;1.30;;;18.80;99.90;;;;;;5023873;28;20037;-65
2022/10/07 12:50:59;;;;;;;8.15;0.80;;;19.70;99.90;;;;;;5023047;28;20044;-65
2022/10/07 12:53:29;;;;;;;8.73;0.93;;;20.10;99.90;;;;;;5039220;28;20045;-64
2022/10/07 12:55:55;;;;;;;7.38;0.93;;;19.70;99.90;;;;;;5038848;28;20383;-65
2022/10/07 13:01:58;;;;;;;10.07;1.00;;;18.70;99.90;;;;;;5039353;28;20060;-64
2022/10/07 13:04:44;;;;;;;8.43;0.80;;;19.40;99.90;;;;;;5022070;28;20044;-65
2022/10/07 13:08:05;;;;;;;9.07;1.10;;;19.90;99.90;;;;;;5038295;28;20043;-65
2022/10/07 13:11:08;;;;;;;8.30;0.73;;;20.10;99.90;;;;;;5039370;28;20087;-65
2022/10/07 13:13:45;;;;;;;7.32;0.95;;;20.20;99.90;;;;;;5020860;28;20080;-66
2022/10/07 13:16:14;;;;;;;9.63;1.00;;;19.70;99.90;;;;;;5023997;28;20510;-68
2022/10/07 13:18:45;;;;;;;8.13;0.80;;;18.90;99.90;;;;;;5041783;28;20502;-66
2022/10/07 13:21:29;;;;;;;8.55;1.02;;;18.50;99.90;;;;;;5024336;28;20156;-66